sensor_id;sensor_type;location;lat;lon;timestamp;P1;durP1;ratioP1;P2;durP2;ratioP2
80111;SDS011;69421;51.062;3.728;2023-06-10T00:00:00;6.30;;;5.65;;
80111;SDS011;69421;51.062;3.728;2023-06-10T00:02:26;6.95;;;6.03;;
80111;SDS011;69421;51.062;3.728;2023-06-10T00:04:52;9.02;;;6.43;;
80111;SDS011;69421;51.062;3.728;2023-06-10T00:07:18;6.70;;;6.05;;
80111;SDS011;69421;51.062;3.728;2023-06-10T00:09:43;7.07;;;6.47;;
80111;SDS011;69421;51.062;3.728;2023-06-10T00:12:09;8.25;;;6.80;;
80111;SDS011;69421;51.062;3.728;2023-06-10T00:14:36;6.72;;;6.07;;
80111;SDS011;69421;51.062;3.728;2023-06-10T00:17:02;6.47;;;5.85;;
80111;SDS011;69421;51.062;3.728;2023-06-10T00:19:28;7.00;;;6.22;;
80111;SDS011;69421;51.062;3.728;2023-06-10T00:21:55;7.57;;;6.18;;
80111;SDS011;69421;51.062;3.728;2023-06-10T00:24:22;8.48;;;6.32;;
80111;SDS011;69421;51.062;3.728;2023-06-10T00:26:48;7.40;;;6.45;;
80111;SDS011;69421;51.062;3.728;2023-06-10T00:29:13;9.48;;;7.68;;
80111;SDS011;69421;51.062;3.728;2023-06-10T00:31:39;7.82;;;6.20;;
80111;SDS011;69421;51.062;3.728;2023-06-10T00:34:06;7.18;;;6.45;;
80111;SDS011;69421;51.062;3.728;2023-06-10T00:36:32;8.70;;;7.22;;
80111;SDS011;69421;51.062;3.728;2023-06-10T00:38:58;8.25;;;6.78;;
80111;SDS011;69421;51.062;3.728;2023-06-10T00:41:23;7.68;;;6.50;;
80111;SDS011;69421;51.062;3.728;2023-06-10T00:43:51;8.57;;;6.55;;
80111;SDS011;69421;51.062;3.728;2023-06-10T00:46:17;7.03;;;6.32;;
80111;SDS011;69421;51.062;3.728;2023-06-10T00:48:43;7.90;;;6.40;;
80111;SDS011;69421;51.062;3.728;2023-06-10T00:51:10;7.85;;;6.50;;
80111;SDS011;69421;51.062;3.728;2023-06-10T00:53:39;8.82;;;6.70;;
80111;SDS011;69421;51.062;3.728;2023-06-10T00:56:06;7.05;;;6.40;;
80111;SDS011;69421;51.062;3.728;2023-06-10T00:58:32;7.25;;;6.55;;
80111;SDS011;69421;51.062;3.728;2023-06-10T01:00:58;7.35;;;6.47;;
80111;SDS011;69421;51.062;3.728;2023-06-10T01:03:23;7.28;;;6.55;;
80111;SDS011;69421;51.062;3.728;2023-06-10T01:11:39;9.50;;;6.38;;
80111;SDS011;69421;51.062;3.728;2023-06-10T01:14:09;7.90;;;6.78;;
80111;SDS011;69421;51.062;3.728;2023-06-10T01:16:35;8.27;;;6.53;;
80111;SDS011;69421;51.062;3.728;2023-06-10T01:19:02;7.13;;;5.90;;
80111;SDS011;69421;51.062;3.728;2023-06-10T01:21:28;9.27;;;6.35;;
80111;SDS011;69421;51.062;3.728;2023-06-10T01:23:54;7.95;;;5.88;;
80111;SDS011;69421;51.062;3.728;2023-06-10T01:26:22;6.88;;;6.28;;
80111;SDS011;69421;51.062;3.728;2023-06-10T01:33:59;7.40;;;6.60;;
80111;SDS011;69421;51.062;3.728;2023-06-10T01:36:25;8.13;;;7.32;;
80111;SDS011;69421;51.062;3.728;2023-06-10T01:38:52;8.27;;;7.13;;
80111;SDS011;69421;51.062;3.728;2023-06-10T01:41:18;9.10;;;6.00;;
80111;SDS011;69421;51.062;3.728;2023-06-10T01:43:46;7.38;;;6.68;;
80111;SDS011;69421;51.062;3.728;2023-06-10T01:46:13;9.25;;;7.05;;
80111;SDS011;69421;51.062;3.728;2023-06-10T01:48:41;6.75;;;6.15;;
80111;SDS011;69421;51.062;3.728;2023-06-10T01:51:07;6.90;;;6.20;;
80111;SDS011;69421;51.062;3.728;2023-06-10T01:53:32;12.05;;;7.75;;
80111;SDS011;69421;51.062;3.728;2023-06-10T01:55:58;8.27;;;7.35;;
80111;SDS011;69421;51.062;3.728;2023-06-10T01:58:23;8.98;;;6.88;;
80111;SDS011;69421;51.062;3.728;2023-06-10T02:00:49;9.57;;;6.90;;
80111;SDS011;69421;51.062;3.728;2023-06-10T02:03:15;8.15;;;6.75;;
80111;SDS011;69421;51.062;3.728;2023-06-10T02:05:41;7.85;;;7.15;;
80111;SDS011;69421;51.062;3.728;2023-06-10T02:08:06;11.13;;;8.55;;
80111;SDS011;69421;51.062;3.728;2023-06-10T02:10:32;8.25;;;7.20;;
80111;SDS011;69421;51.062;3.728;2023-06-10T02:12:58;7.00;;;6.30;;
80111;SDS011;69421;51.062;3.728;2023-06-10T02:15:23;9.80;;;7.55;;
80111;SDS011;69421;51.062;3.728;2023-06-10T02:17:49;7.60;;;6.82;;
80111;SDS011;69421;51.062;3.728;2023-06-10T02:20:15;9.57;;;6.63;;
80111;SDS011;69421;51.062;3.728;2023-06-10T02:22:41;9.43;;;7.97;;
80111;SDS011;69421;51.062;3.728;2023-06-10T02:25:07;9.18;;;7.05;;
80111;SDS011;69421;51.062;3.728;2023-06-10T02:27:33;7.82;;;6.93;;
80111;SDS011;69421;51.062;3.728;2023-06-10T02:29:58;8.50;;;7.60;;
80111;SDS011;69421;51.062;3.728;2023-06-10T02:32:24;7.85;;;7.05;;
80111;SDS011;69421;51.062;3.728;2023-06-10T02:34:50;8.55;;;7.65;;
80111;SDS011;69421;51.062;3.728;2023-06-10T02:37:16;9.43;;;7.38;;
80111;SDS011;69421;51.062;3.728;2023-06-10T02:39:42;8.60;;;7.65;;
80111;SDS011;69421;51.062;3.728;2023-06-10T02:42:07;11.63;;;7.25;;
80111;SDS011;69421;51.062;3.728;2023-06-10T02:44:33;9.88;;;8.95;;
80111;SDS011;69421;51.062;3.728;2023-06-10T02:46:59;8.18;;;7.38;;
80111;SDS011;69421;51.062;3.728;2023-06-10T02:49:25;8.70;;;7.68;;
80111;SDS011;69421;51.062;3.728;2023-06-10T02:51:53;9.20;;;7.53;;
80111;SDS011;69421;51.062;3.728;2023-06-10T02:54:21;9.73;;;7.30;;
80111;SDS011;69421;51.062;3.728;2023-06-10T02:59:13;8.20;;;6.65;;
80111;SDS011;69421;51.062;3.728;2023-06-10T03:01:39;11.82;;;7.88;;
80111;SDS011;69421;51.062;3.728;2023-06-10T03:04:05;7.80;;;7.10;;
80111;SDS011;69421;51.062;3.728;2023-06-10T03:06:32;8.20;;;7.50;;
80111;SDS011;69421;51.062;3.728;2023-06-10T03:09:01;8.95;;;7.65;;
80111;SDS011;69421;51.062;3.728;2023-06-10T03:11:29;8.65;;;7.72;;
80111;SDS011;69421;51.062;3.728;2023-06-10T03:13:55;9.65;;;8.43;;
80111;SDS011;69421;51.062;3.728;2023-06-10T03:16:21;9.75;;;8.85;;
80111;SDS011;69421;51.062;3.728;2023-06-10T03:18:48;9.55;;;8.13;;
80111;SDS011;69421;51.062;3.728;2023-06-10T03:21:14;8.63;;;7.68;;
80111;SDS011;69421;51.062;3.728;2023-06-10T03:23:40;8.85;;;7.85;;
80111;SDS011;69421;51.062;3.728;2023-06-10T03:26:06;8.85;;;7.70;;
80111;SDS011;69421;51.062;3.728;2023-06-10T03:28:31;9.30;;;8.40;;
80111;SDS011;69421;51.062;3.728;2023-06-10T03:30:57;9.63;;;8.45;;
80111;SDS011;69421;51.062;3.728;2023-06-10T03:33:22;8.52;;;7.47;;
80111;SDS011;69421;51.062;3.728;2023-06-10T03:35:48;10.07;;;9.05;;
80111;SDS011;69421;51.062;3.728;2023-06-10T03:38:14;10.70;;;8.18;;
80111;SDS011;69421;51.062;3.728;2023-06-10T03:40:40;9.10;;;7.82;;
80111;SDS011;69421;51.062;3.728;2023-06-10T03:43:05;10.75;;;9.65;;
80111;SDS011;69421;51.062;3.728;2023-06-10T03:45:31;10.95;;;8.38;;
80111;SDS011;69421;51.062;3.728;2023-06-10T03:47:57;9.40;;;8.07;;
80111;SDS011;69421;51.062;3.728;2023-06-10T03:50:23;11.10;;;9.98;;
80111;SDS011;69421;51.062;3.728;2023-06-10T03:52:49;9.20;;;8.02;;
80111;SDS011;69421;51.062;3.728;2023-06-10T03:55:15;11.25;;;8.82;;
80111;SDS011;69421;51.062;3.728;2023-06-10T03:57:42;9.55;;;7.72;;
80111;SDS011;69421;51.062;3.728;2023-06-10T04:00:08;10.57;;;8.70;;
80111;SDS011;69421;51.062;3.728;2023-06-10T04:02:37;11.80;;;8.77;;
80111;SDS011;69421;51.062;3.728;2023-06-10T04:05:11;10.13;;;8.32;;
80111;SDS011;69421;51.062;3.728;2023-06-10T04:07:37;10.70;;;9.50;;
80111;SDS011;69421;51.062;3.728;2023-06-10T04:10:06;12.10;;;7.93;;
80111;SDS011;69421;51.062;3.728;2023-06-10T04:12:32;10.02;;;8.70;;
80111;SDS011;69421;51.062;3.728;2023-06-10T04:14:58;10.82;;;7.82;;
80111;SDS011;69421;51.062;3.728;2023-06-10T04:17:24;9.23;;;8.27;;
80111;SDS011;69421;51.062;3.728;2023-06-10T04:19:50;10.07;;;8.43;;
80111;SDS011;69421;51.062;3.728;2023-06-10T04:22:16;10.20;;;8.85;;
80111;SDS011;69421;51.062;3.728;2023-06-10T04:24:43;12.25;;;8.98;;
80111;SDS011;69421;51.062;3.728;2023-06-10T04:27:08;9.45;;;8.45;;
80111;SDS011;69421;51.062;3.728;2023-06-10T04:29:35;10.68;;;8.95;;
80111;SDS011;69421;51.062;3.728;2023-06-10T04:32:01;10.25;;;9.25;;
80111;SDS011;69421;51.062;3.728;2023-06-10T04:34:27;10.23;;;8.70;;
80111;SDS011;69421;51.062;3.728;2023-06-10T04:36:53;9.75;;;8.73;;
80111;SDS011;69421;51.062;3.728;2023-06-10T04:39:18;9.65;;;8.65;;
80111;SDS011;69421;51.062;3.728;2023-06-10T04:41:45;14.65;;;9.68;;
80111;SDS011;69421;51.062;3.728;2023-06-10T04:44:11;9.52;;;8.30;;
80111;SDS011;69421;51.062;3.728;2023-06-10T04:46:37;11.40;;;8.88;;
80111;SDS011;69421;51.062;3.728;2023-06-10T04:49:02;14.23;;;8.98;;
80111;SDS011;69421;51.062;3.728;2023-06-10T04:51:30;8.90;;;7.97;;
80111;SDS011;69421;51.062;3.728;2023-06-10T04:53:55;9.90;;;8.93;;
80111;SDS011;69421;51.062;3.728;2023-06-10T04:56:20;10.67;;;8.70;;
80111;SDS011;69421;51.062;3.728;2023-06-10T04:58:46;15.02;;;9.57;;
80111;SDS011;69421;51.062;3.728;2023-06-10T05:01:11;9.77;;;8.83;;
80111;SDS011;69421;51.062;3.728;2023-06-10T05:03:37;9.27;;;8.03;;
80111;SDS011;69421;51.062;3.728;2023-06-10T05:06:03;9.32;;;8.38;;
80111;SDS011;69421;51.062;3.728;2023-06-10T05:08:29;10.00;;;9.00;;
80111;SDS011;69421;51.062;3.728;2023-06-10T05:10:55;11.88;;;9.18;;
80111;SDS011;69421;51.062;3.728;2023-06-10T05:13:20;10.88;;;9.77;;
80111;SDS011;69421;51.062;3.728;2023-06-10T05:15:46;10.60;;;9.38;;
80111;SDS011;69421;51.062;3.728;2023-06-10T05:18:11;11.30;;;9.40;;
80111;SDS011;69421;51.062;3.728;2023-06-10T05:20:37;10.73;;;8.88;;
80111;SDS011;69421;51.062;3.728;2023-06-10T05:23:03;10.35;;;9.10;;
80111;SDS011;69421;51.062;3.728;2023-06-10T05:25:32;10.18;;;8.82;;
80111;SDS011;69421;51.062;3.728;2023-06-10T05:27:57;9.63;;;8.68;;
80111;SDS011;69421;51.062;3.728;2023-06-10T05:30:23;10.35;;;9.07;;
80111;SDS011;69421;51.062;3.728;2023-06-10T05:32:50;10.43;;;8.32;;
80111;SDS011;69421;51.062;3.728;2023-06-10T05:35:18;9.93;;;8.93;;
80111;SDS011;69421;51.062;3.728;2023-06-10T05:37:44;11.48;;;9.32;;
80111;SDS011;69421;51.062;3.728;2023-06-10T05:40:10;10.43;;;9.25;;
80111;SDS011;69421;51.062;3.728;2023-06-10T05:42:36;12.57;;;9.77;;
80111;SDS011;69421;51.062;3.728;2023-06-10T05:45:02;11.82;;;8.98;;
80111;SDS011;69421;51.062;3.728;2023-06-10T05:47:28;10.13;;;8.82;;
80111;SDS011;69421;51.062;3.728;2023-06-10T05:49:54;9.90;;;8.52;;
80111;SDS011;69421;51.062;3.728;2023-06-10T05:52:20;9.60;;;8.63;;
80111;SDS011;69421;51.062;3.728;2023-06-10T05:54:45;10.63;;;8.15;;
80111;SDS011;69421;51.062;3.728;2023-06-10T05:57:11;13.80;;;8.93;;
80111;SDS011;69421;51.062;3.728;2023-06-10T05:59:37;9.98;;;8.82;;
80111;SDS011;69421;51.062;3.728;2023-06-10T06:02:02;9.10;;;8.07;;
80111;SDS011;69421;51.062;3.728;2023-06-10T06:04:28;8.52;;;7.60;;
80111;SDS011;69421;51.062;3.728;2023-06-10T06:06:54;10.88;;;8.80;;
80111;SDS011;69421;51.062;3.728;2023-06-10T06:09:19;9.90;;;8.82;;
80111;SDS011;69421;51.062;3.728;2023-06-10T06:11:45;9.95;;;8.95;;
80111;SDS011;69421;51.062;3.728;2023-06-10T06:14:11;10.07;;;9.07;;
80111;SDS011;69421;51.062;3.728;2023-06-10T06:16:36;10.98;;;9.38;;
80111;SDS011;69421;51.062;3.728;2023-06-10T06:19:02;8.50;;;7.70;;
80111;SDS011;69421;51.062;3.728;2023-06-10T06:21:27;9.30;;;8.20;;
80111;SDS011;69421;51.062;3.728;2023-06-10T06:23:53;11.75;;;8.10;;
80111;SDS011;69421;51.062;3.728;2023-06-10T06:26:19;8.82;;;8.02;;
80111;SDS011;69421;51.062;3.728;2023-06-10T06:28:44;9.88;;;8.50;;
80111;SDS011;69421;51.062;3.728;2023-06-10T06:31:10;8.77;;;7.95;;
80111;SDS011;69421;51.062;3.728;2023-06-10T06:33:36;9.43;;;7.85;;
80111;SDS011;69421;51.062;3.728;2023-06-10T06:36:01;8.98;;;8.07;;
80111;SDS011;69421;51.062;3.728;2023-06-10T06:38:27;11.15;;;8.95;;
80111;SDS011;69421;51.062;3.728;2023-06-10T06:40:53;10.27;;;9.18;;
80111;SDS011;69421;51.062;3.728;2023-06-10T06:43:19;11.55;;;8.68;;
80111;SDS011;69421;51.062;3.728;2023-06-10T06:45:44;9.65;;;8.40;;
80111;SDS011;69421;51.062;3.728;2023-06-10T06:48:11;10.60;;;8.88;;
80111;SDS011;69421;51.062;3.728;2023-06-10T06:50:37;9.35;;;8.45;;
80111;SDS011;69421;51.062;3.728;2023-06-10T06:53:03;9.57;;;8.25;;
80111;SDS011;69421;51.062;3.728;2023-06-10T06:55:29;10.25;;;7.75;;
80111;SDS011;69421;51.062;3.728;2023-06-10T06:57:55;9.25;;;8.45;;
80111;SDS011;69421;51.062;3.728;2023-06-10T07:00:21;10.77;;;8.23;;
80111;SDS011;69421;51.062;3.728;2023-06-10T07:02:47;9.90;;;8.98;;
80111;SDS011;69421;51.062;3.728;2023-06-10T07:05:13;9.18;;;7.68;;
80111;SDS011;69421;51.062;3.728;2023-06-10T07:07:38;10.50;;;9.40;;
80111;SDS011;69421;51.062;3.728;2023-06-10T07:10:07;9.95;;;8.02;;
80111;SDS011;69421;51.062;3.728;2023-06-10T07:12:33;9.23;;;7.55;;
80111;SDS011;69421;51.062;3.728;2023-06-10T07:14:59;10.27;;;7.93;;
80111;SDS011;69421;51.062;3.728;2023-06-10T07:17:25;9.07;;;7.85;;
80111;SDS011;69421;51.062;3.728;2023-06-10T07:19:51;9.82;;;7.85;;
80111;SDS011;69421;51.062;3.728;2023-06-10T07:22:17;11.05;;;8.57;;
80111;SDS011;69421;51.062;3.728;2023-06-10T07:24:43;8.38;;;7.57;;
80111;SDS011;69421;51.062;3.728;2023-06-10T07:27:08;9.57;;;8.63;;
80111;SDS011;69421;51.062;3.728;2023-06-10T07:29:35;8.60;;;7.70;;
80111;SDS011;69421;51.062;3.728;2023-06-10T07:32:01;8.43;;;7.50;;
80111;SDS011;69421;51.062;3.728;2023-06-10T07:34:28;7.65;;;6.95;;
80111;SDS011;69421;51.062;3.728;2023-06-10T07:36:53;9.07;;;7.60;;
80111;SDS011;69421;51.062;3.728;2023-06-10T07:39:19;8.00;;;7.20;;
80111;SDS011;69421;51.062;3.728;2023-06-10T07:41:45;9.32;;;8.32;;
80111;SDS011;69421;51.062;3.728;2023-06-10T07:44:10;9.57;;;8.13;;
80111;SDS011;69421;51.062;3.728;2023-06-10T07:46:36;9.20;;;7.85;;
80111;SDS011;69421;51.062;3.728;2023-06-10T07:49:01;9.75;;;7.53;;
80111;SDS011;69421;51.062;3.728;2023-06-10T07:51:27;8.65;;;7.63;;
80111;SDS011;69421;51.062;3.728;2023-06-10T07:53:53;8.70;;;7.70;;
80111;SDS011;69421;51.062;3.728;2023-06-10T07:56:18;9.02;;;8.25;;
80111;SDS011;69421;51.062;3.728;2023-06-10T07:58:45;7.97;;;6.97;;
80111;SDS011;69421;51.062;3.728;2023-06-10T08:01:11;8.52;;;7.65;;
80111;SDS011;69421;51.062;3.728;2023-06-10T08:03:37;8.88;;;8.07;;
80111;SDS011;69421;51.062;3.728;2023-06-10T08:06:02;8.75;;;7.75;;
80111;SDS011;69421;51.062;3.728;2023-06-10T08:08:28;12.65;;;7.05;;
80111;SDS011;69421;51.062;3.728;2023-06-10T08:10:53;7.53;;;6.80;;
80111;SDS011;69421;51.062;3.728;2023-06-10T08:13:19;7.28;;;6.63;;
80111;SDS011;69421;51.062;3.728;2023-06-10T08:15:45;7.57;;;6.88;;
80111;SDS011;69421;51.062;3.728;2023-06-10T08:18:12;6.88;;;6.10;;
80111;SDS011;69421;51.062;3.728;2023-06-10T08:20:38;7.32;;;6.50;;
80111;SDS011;69421;51.062;3.728;2023-06-10T08:23:04;8.70;;;6.93;;
80111;SDS011;69421;51.062;3.728;2023-06-10T08:25:29;7.75;;;6.82;;
80111;SDS011;69421;51.062;3.728;2023-06-10T08:27:55;8.63;;;6.93;;
80111;SDS011;69421;51.062;3.728;2023-06-10T08:30:22;7.25;;;6.65;;
80111;SDS011;69421;51.062;3.728;2023-06-10T08:32:48;6.50;;;5.90;;
80111;SDS011;69421;51.062;3.728;2023-06-10T08:35:13;7.47;;;6.73;;
80111;SDS011;69421;51.062;3.728;2023-06-10T08:37:39;7.53;;;6.70;;
80111;SDS011;69421;51.062;3.728;2023-06-10T08:40:05;7.35;;;6.65;;
80111;SDS011;69421;51.062;3.728;2023-06-10T08:42:45;6.93;;;6.32;;
80111;SDS011;69421;51.062;3.728;2023-06-10T08:45:18;6.60;;;6.00;;
80111;SDS011;69421;51.062;3.728;2023-06-10T08:47:45;6.35;;;5.82;;
80111;SDS011;69421;51.062;3.728;2023-06-10T08:50:14;7.38;;;6.22;;
80111;SDS011;69421;51.062;3.728;2023-06-10T08:52:42;6.85;;;6.18;;
80111;SDS011;69421;51.062;3.728;2023-06-10T08:55:14;6.63;;;5.97;;
80111;SDS011;69421;51.062;3.728;2023-06-10T08:57:43;6.93;;;6.22;;
80111;SDS011;69421;51.062;3.728;2023-06-10T09:00:09;6.47;;;5.78;;
80111;SDS011;69421;51.062;3.728;2023-06-10T09:02:35;8.40;;;6.85;;
80111;SDS011;69421;51.062;3.728;2023-06-10T09:05:02;7.03;;;5.80;;
80111;SDS011;69421;51.062;3.728;2023-06-10T09:07:27;7.30;;;6.60;;
80111;SDS011;69421;51.062;3.728;2023-06-10T09:09:56;6.18;;;5.55;;
80111;SDS011;69421;51.062;3.728;2023-06-10T09:12:22;9.10;;;6.70;;
80111;SDS011;69421;51.062;3.728;2023-06-10T09:14:48;7.38;;;6.50;;
80111;SDS011;69421;51.062;3.728;2023-06-10T09:17:15;8.40;;;7.65;;
80111;SDS011;69421;51.062;3.728;2023-06-10T09:19:41;7.57;;;6.13;;
80111;SDS011;69421;51.062;3.728;2023-06-10T09:22:07;6.90;;;6.20;;
80111;SDS011;69421;51.062;3.728;2023-06-10T09:24:33;6.72;;;5.95;;
80111;SDS011;69421;51.062;3.728;2023-06-10T09:27:03;8.55;;;5.93;;
80111;SDS011;69421;51.062;3.728;2023-06-10T09:29:45;8.23;;;6.03;;
80111;SDS011;69421;51.062;3.728;2023-06-10T09:32:13;6.25;;;5.65;;
80111;SDS011;69421;51.062;3.728;2023-06-10T09:34:39;7.22;;;6.47;;
80111;SDS011;69421;51.062;3.728;2023-06-10T09:37:05;6.72;;;6.13;;
80111;SDS011;69421;51.062;3.728;2023-06-10T09:39:31;6.95;;;6.22;;
80111;SDS011;69421;51.062;3.728;2023-06-10T09:41:56;6.70;;;5.95;;
80111;SDS011;69421;51.062;3.728;2023-06-10T09:44:22;6.35;;;5.70;;
80111;SDS011;69421;51.062;3.728;2023-06-10T09:46:49;6.47;;;5.97;;
80111;SDS011;69421;51.062;3.728;2023-06-10T09:49:19;7.50;;;5.88;;
80111;SDS011;69421;51.062;3.728;2023-06-10T09:51:52;6.45;;;5.80;;
80111;SDS011;69421;51.062;3.728;2023-06-10T09:54:19;6.97;;;6.28;;
80111;SDS011;69421;51.062;3.728;2023-06-10T09:56:48;7.28;;;6.45;;
80111;SDS011;69421;51.062;3.728;2023-06-10T09:59:15;6.50;;;5.90;;
80111;SDS011;69421;51.062;3.728;2023-06-10T10:01:41;6.05;;;5.55;;
80111;SDS011;69421;51.062;3.728;2023-06-10T10:04:06;6.95;;;5.85;;
80111;SDS011;69421;51.062;3.728;2023-06-10T10:06:32;9.95;;;6.38;;
80111;SDS011;69421;51.062;3.728;2023-06-10T10:08:59;5.95;;;5.43;;
80111;SDS011;69421;51.062;3.728;2023-06-10T10:11:25;6.40;;;5.90;;
80111;SDS011;69421;51.062;3.728;2023-06-10T10:13:52;7.00;;;6.40;;
80111;SDS011;69421;51.062;3.728;2023-06-10T10:16:21;6.63;;;5.97;;
80111;SDS011;69421;51.062;3.728;2023-06-10T10:18:56;7.28;;;5.68;;
80111;SDS011;69421;51.062;3.728;2023-06-10T10:21:26;6.03;;;5.53;;
80111;SDS011;69421;51.062;3.728;2023-06-10T10:23:53;6.20;;;5.60;;
80111;SDS011;69421;51.062;3.728;2023-06-10T10:26:22;7.65;;;5.85;;
80111;SDS011;69421;51.062;3.728;2023-06-10T10:28:51;6.82;;;6.18;;
80111;SDS011;69421;51.062;3.728;2023-06-10T10:31:22;6.03;;;5.43;;
80111;SDS011;69421;51.062;3.728;2023-06-10T10:33:52;5.68;;;5.10;;
80111;SDS011;69421;51.062;3.728;2023-06-10T10:36:21;6.20;;;5.68;;
80111;SDS011;69421;51.062;3.728;2023-06-10T10:38:47;6.75;;;5.50;;
80111;SDS011;69421;51.062;3.728;2023-06-10T10:41:14;5.63;;;5.22;;
80111;SDS011;69421;51.062;3.728;2023-06-10T10:43:40;5.75;;;5.20;;
80111;SDS011;69421;51.062;3.728;2023-06-10T10:46:11;5.63;;;4.93;;
80111;SDS011;69421;51.062;3.728;2023-06-10T10:48:38;6.82;;;5.20;;
80111;SDS011;69421;51.062;3.728;2023-06-10T10:51:06;5.63;;;5.03;;
80111;SDS011;69421;51.062;3.728;2023-06-10T10:53:32;5.35;;;4.85;;
80111;SDS011;69421;51.062;3.728;2023-06-10T10:56:07;4.90;;;4.40;;
80111;SDS011;69421;51.062;3.728;2023-06-10T10:58:37;5.82;;;5.28;;
80111;SDS011;69421;51.062;3.728;2023-06-10T11:01:11;7.03;;;4.85;;
80111;SDS011;69421;51.062;3.728;2023-06-10T11:03:41;5.32;;;4.50;;
80111;SDS011;69421;51.062;3.728;2023-06-10T11:06:13;5.75;;;4.10;;
80111;SDS011;69421;51.062;3.728;2023-06-10T11:11:21;5.45;;;4.95;;
80111;SDS011;69421;51.062;3.728;2023-06-10T11:19:03;6.22;;;4.30;;
80111;SDS011;69421;51.062;3.728;2023-06-10T11:21:28;6.43;;;4.60;;
80111;SDS011;69421;51.062;3.728;2023-06-10T11:23:57;4.63;;;4.22;;
80111;SDS011;69421;51.062;3.728;2023-06-10T11:31:24;4.70;;;4.30;;
80111;SDS011;69421;51.062;3.728;2023-06-10T11:36:49;5.15;;;4.28;;
80111;SDS011;69421;51.062;3.728;2023-06-10T11:39:16;6.10;;;4.47;;
80111;SDS011;69421;51.062;3.728;2023-06-10T11:41:43;6.03;;;4.05;;
80111;SDS011;69421;51.062;3.728;2023-06-10T11:44:13;4.25;;;3.83;;
80111;SDS011;69421;51.062;3.728;2023-06-10T11:46:38;7.70;;;4.22;;
80111;SDS011;69421;51.062;3.728;2023-06-10T11:49:05;6.50;;;4.78;;
80111;SDS011;69421;51.062;3.728;2023-06-10T11:51:35;5.45;;;4.35;;
80111;SDS011;69421;51.062;3.728;2023-06-10T11:54:02;6.65;;;4.07;;
80111;SDS011;69421;51.062;3.728;2023-06-10T11:56:29;5.07;;;4.13;;
80111;SDS011;69421;51.062;3.728;2023-06-10T11:58:56;5.38;;;4.88;;
80111;SDS011;69421;51.062;3.728;2023-06-10T12:01:30;4.28;;;3.70;;
80111;SDS011;69421;51.062;3.728;2023-06-10T12:03:57;5.05;;;4.40;;
80111;SDS011;69421;51.062;3.728;2023-06-10T12:12:05;5.38;;;4.75;;
80111;SDS011;69421;51.062;3.728;2023-06-10T12:17:23;5.55;;;4.95;;
80111;SDS011;69421;51.062;3.728;2023-06-10T12:20:02;6.63;;;4.45;;
80111;SDS011;69421;51.062;3.728;2023-06-10T12:22:36;4.88;;;4.05;;
80111;SDS011;69421;51.062;3.728;2023-06-10T12:25:03;4.80;;;4.10;;
80111;SDS011;69421;51.062;3.728;2023-06-10T12:27:32;4.28;;;3.92;;
80111;SDS011;69421;51.062;3.728;2023-06-10T12:29:59;8.88;;;4.28;;
80111;SDS011;69421;51.062;3.728;2023-06-10T12:33:01;5.22;;;4.50;;
80111;SDS011;69421;51.062;3.728;2023-06-10T12:35:24;5.88;;;5.38;;
80111;SDS011;69421;51.062;3.728;2023-06-10T12:43:02;8.07;;;4.90;;
80111;SDS011;69421;51.062;3.728;2023-06-10T12:45:29;5.43;;;4.25;;
80111;SDS011;69421;51.062;3.728;2023-06-10T12:48:05;4.95;;;4.50;;
80111;SDS011;69421;51.062;3.728;2023-06-10T12:50:41;5.50;;;4.88;;
80111;SDS011;69421;51.062;3.728;2023-06-10T12:53:07;5.35;;;4.85;;
80111;SDS011;69421;51.062;3.728;2023-06-10T12:55:33;5.82;;;4.82;;
80111;SDS011;69421;51.062;3.728;2023-06-10T12:57:59;8.70;;;5.00;;
80111;SDS011;69421;51.062;3.728;2023-06-10T13:00:26;7.60;;;5.20;;
80111;SDS011;69421;51.062;3.728;2023-06-10T13:02:55;5.18;;;4.40;;
80111;SDS011;69421;51.062;3.728;2023-06-10T13:05:21;4.53;;;4.13;;
80111;SDS011;69421;51.062;3.728;2023-06-10T13:07:47;4.97;;;4.47;;
80111;SDS011;69421;51.062;3.728;2023-06-10T13:10:14;4.97;;;4.47;;
80111;SDS011;69421;51.062;3.728;2023-06-10T13:12:41;5.35;;;4.40;;
80111;SDS011;69421;51.062;3.728;2023-06-10T13:15:07;6.38;;;4.93;;
80111;SDS011;69421;51.062;3.728;2023-06-10T13:17:33;8.13;;;4.85;;
80111;SDS011;69421;51.062;3.728;2023-06-10T13:19:59;5.40;;;4.90;;
80111;SDS011;69421;51.062;3.728;2023-06-10T13:22:26;8.23;;;5.22;;
80111;SDS011;69421;51.062;3.728;2023-06-10T13:24:52;6.13;;;5.07;;
80111;SDS011;69421;51.062;3.728;2023-06-10T13:27:17;6.38;;;4.50;;
80111;SDS011;69421;51.062;3.728;2023-06-10T13:29:43;4.65;;;4.25;;
80111;SDS011;69421;51.062;3.728;2023-06-10T13:32:09;4.75;;;4.32;;
80111;SDS011;69421;51.062;3.728;2023-06-10T13:34:35;4.72;;;4.32;;
80111;SDS011;69421;51.062;3.728;2023-06-10T13:37:01;4.90;;;4.50;;
80111;SDS011;69421;51.062;3.728;2023-06-10T13:39:29;5.60;;;5.10;;
80111;SDS011;69421;51.062;3.728;2023-06-10T13:41:54;6.13;;;5.53;;
80111;SDS011;69421;51.062;3.728;2023-06-10T13:44:20;6.00;;;4.60;;
80111;SDS011;69421;51.062;3.728;2023-06-10T13:46:45;5.70;;;5.17;;
80111;SDS011;69421;51.062;3.728;2023-06-10T13:49:11;6.70;;;4.72;;
80111;SDS011;69421;51.062;3.728;2023-06-10T13:51:37;6.63;;;5.20;;
80111;SDS011;69421;51.062;3.728;2023-06-10T13:54:02;5.38;;;4.88;;
80111;SDS011;69421;51.062;3.728;2023-06-10T13:56:28;5.88;;;5.05;;
80111;SDS011;69421;51.062;3.728;2023-06-10T13:58:53;5.95;;;5.40;;
80111;SDS011;69421;51.062;3.728;2023-06-10T14:01:19;6.47;;;4.82;;
80111;SDS011;69421;51.062;3.728;2023-06-10T14:03:45;6.00;;;5.50;;
80111;SDS011;69421;51.062;3.728;2023-06-10T14:06:11;5.93;;;5.43;;
80111;SDS011;69421;51.062;3.728;2023-06-10T14:08:43;5.50;;;4.78;;
80111;SDS011;69421;51.062;3.728;2023-06-10T14:11:09;6.68;;;5.35;;
80111;SDS011;69421;51.062;3.728;2023-06-10T14:13:36;5.97;;;5.38;;
80111;SDS011;69421;51.062;3.728;2023-06-10T14:16:03;5.20;;;4.68;;
80111;SDS011;69421;51.062;3.728;2023-06-10T14:18:29;5.72;;;5.22;;
80111;SDS011;69421;51.062;3.728;2023-06-10T14:20:55;5.78;;;5.32;;
80111;SDS011;69421;51.062;3.728;2023-06-10T14:23:21;6.07;;;5.53;;
80111;SDS011;69421;51.062;3.728;2023-06-10T14:25:46;5.32;;;4.82;;
80111;SDS011;69421;51.062;3.728;2023-06-10T14:28:12;5.70;;;5.28;;
80111;SDS011;69421;51.062;3.728;2023-06-10T14:30:38;6.20;;;5.60;;
80111;SDS011;69421;51.062;3.728;2023-06-10T14:33:03;7.20;;;5.60;;
80111;SDS011;69421;51.062;3.728;2023-06-10T14:35:29;7.35;;;5.20;;
80111;SDS011;69421;51.062;3.728;2023-06-10T14:37:55;5.80;;;5.20;;
80111;SDS011;69421;51.062;3.728;2023-06-10T14:40:20;5.43;;;4.93;;
80111;SDS011;69421;51.062;3.728;2023-06-10T14:42:50;6.05;;;4.90;;
80111;SDS011;69421;51.062;3.728;2023-06-10T14:45:15;6.03;;;5.35;;
80111;SDS011;69421;51.062;3.728;2023-06-10T14:47:41;5.30;;;4.80;;
80111;SDS011;69421;51.062;3.728;2023-06-10T14:50:07;7.30;;;5.07;;
80111;SDS011;69421;51.062;3.728;2023-06-10T14:52:33;5.18;;;4.68;;
80111;SDS011;69421;51.062;3.728;2023-06-10T14:54:58;5.35;;;4.85;;
80111;SDS011;69421;51.062;3.728;2023-06-10T14:57:24;5.15;;;4.65;;
80111;SDS011;69421;51.062;3.728;2023-06-10T14:59:50;6.60;;;4.75;;
80111;SDS011;69421;51.062;3.728;2023-06-10T15:02:15;5.95;;;5.10;;
80111;SDS011;69421;51.062;3.728;2023-06-10T15:04:41;4.97;;;4.57;;
80111;SDS011;69421;51.062;3.728;2023-06-10T15:07:07;5.00;;;4.50;;
80111;SDS011;69421;51.062;3.728;2023-06-10T15:09:32;5.38;;;4.60;;
80111;SDS011;69421;51.062;3.728;2023-06-10T15:11:58;5.45;;;4.95;;
80111;SDS011;69421;51.062;3.728;2023-06-10T15:14:29;6.32;;;5.03;;
80111;SDS011;69421;51.062;3.728;2023-06-10T15:16:54;7.53;;;5.00;;
80111;SDS011;69421;51.062;3.728;2023-06-10T15:19:21;6.32;;;5.72;;
80111;SDS011;69421;51.062;3.728;2023-06-10T15:21:46;5.43;;;4.93;;
80111;SDS011;69421;51.062;3.728;2023-06-10T15:24:12;6.30;;;5.30;;